Strona główna
METAR-TAF:

METAR-TAF

Lotnisko :

Port lotniczy Córdoba

Córdoba, Argentyna

Szerokość geograficzna: 31-19S, Długość geograficzna: 064-13W, wysokość: 484 m

Aktualna obserwacja pogody

Raport powstał 1 godzina i 3 minut temu, godzina 00:00 UTC
Wiatr 5 kt od północno-północny wschód
Temperatura 10°C
Wilgotność 82%
Ciśnienie 1009 hPa
Widzialność 10 km lub więcej
Brak chmur poniżej 1500 m i brak chmur cumulonimbus

METAR: SACO 260000Z 02005KT CAVOK 10/07 Q1009 NOSIG

czas: 22:03 (01:03 UTC)

Prognoza

Raport powstał 2 godziny i 3 minut temu, godzina 23:00 UTC
Prognoza ważna od 26 godzina 00 UTC do 26 godzina 24 UTC
Wiatr 15 kt od północny wschód
Widzialność 10 km lub więcej
Brak chmur poniżej 1500 m i brak chmur cumulonimbus
Stopniowe zmiany
od 26 godzina 02 UTC do 26 godzina 04 UTC
Wiatr 3 kt z kierunków zmiennych
Stopniowe zmiany
od 26 godzina 12 UTC do 26 godzina 15 UTC
Wiatr 10 kt od południowy wschód

TAF: SACO 252300Z 2600/2624 05015KT CAVOK TX20/2618Z TN06/2610Z BECMG 2602/2604 VRB03KT BECMG 2612/2615 14010KT

Obserwacja i prognoza pogody dla ponad 4000 lotnisk (raport METAR i TAF).

Dostępne stacje oznaczono żółtymi i czerwonymi punktami na mapie.

Najedź kursorem aby zobaczyć nazwę stacji.

Kliknij aby zobaczyć obserwacje i prognozy pogody.

Aby zmienić mapę: kliknij na zielony przycisk z czarnym krzyżykiem, aby powiększyć; na zielony przycisk z myślnikiem, aby pomniejszyć; na zielone strzałki, aby przejść do map sąsiednich.


METAR-TAF: